createdAt,value
2019-03-25T00:01:34.684Z,6.82
2019-03-25T00:04:04.658Z,6.83
2019-03-25T00:06:34.623Z,6.98
2019-03-25T00:09:06.013Z,6.91
2019-03-25T00:11:36.080Z,7.02
2019-03-25T00:14:06.080Z,7.36
2019-03-25T00:16:36.025Z,7.27
2019-03-25T00:19:06.015Z,7.22
2019-03-25T00:21:35.993Z,7.28
2019-03-25T00:24:06.012Z,7.27
2019-03-25T00:26:35.970Z,7.72
2019-03-25T00:29:05.933Z,7.47
2019-03-25T00:31:35.903Z,7.42
2019-03-25T00:34:05.920Z,7.51
2019-03-25T00:36:35.856Z,7.56
2019-03-25T00:39:07.729Z,7.50
2019-03-25T00:41:37.711Z,7.87
2019-03-25T00:44:07.750Z,7.58
2019-03-25T00:46:37.706Z,7.56
2019-03-25T00:49:07.721Z,7.56
2019-03-25T00:51:37.683Z,7.60
2019-03-25T00:54:07.692Z,7.96
2019-03-25T00:56:37.645Z,7.69
2019-03-25T00:59:07.673Z,7.72
2019-03-25T01:01:37.646Z,7.68
2019-03-25T01:04:07.621Z,7.71
2019-03-25T01:06:37.628Z,7.73
2019-03-25T01:09:08.187Z,7.90
2019-03-25T01:11:48.735Z,8.03
2019-03-25T01:14:08.128Z,7.84
2019-03-25T01:16:38.111Z,7.76
2019-03-25T01:19:08.106Z,7.70
2019-03-25T01:21:38.065Z,7.63
2019-03-25T01:24:08.076Z,7.64
2019-03-25T01:26:38.029Z,7.57
2019-03-25T01:29:08.004Z,7.52
2019-03-25T01:31:37.972Z,7.87
2019-03-25T01:34:07.946Z,7.73
2019-03-25T01:36:37.932Z,7.71
2019-03-25T01:39:07.995Z,7.69
2019-03-25T01:41:37.951Z,7.65
2019-03-25T01:44:07.989Z,7.62
2019-03-25T01:46:37.927Z,7.61
2019-03-25T01:49:07.940Z,7.67
2019-03-25T01:51:37.909Z,7.68
2019-03-25T01:54:07.988Z,7.64
2019-03-25T01:56:37.971Z,7.66
2019-03-25T01:59:07.959Z,7.68
2019-03-25T02:01:37.913Z,7.70
2019-03-25T02:04:07.963Z,7.69
2019-03-25T02:06:37.907Z,8.12
2019-03-25T02:09:08.757Z,7.94
2019-03-25T02:11:38.719Z,7.99
2019-03-25T02:14:08.683Z,8.35
2019-03-25T02:16:38.680Z,8.20
2019-03-25T02:19:08.685Z,8.08
2019-03-25T02:21:38.643Z,8.03
2019-03-25T02:24:08.590Z,8.04
2019-03-25T02:26:38.574Z,7.88
2019-03-25T02:29:08.548Z,7.84
2019-03-25T02:31:38.573Z,7.82
2019-03-25T02:34:08.535Z,7.79
2019-03-25T02:36:38.527Z,7.77
2019-03-25T02:39:08.558Z,7.72
2019-03-25T02:41:38.474Z,7.71
2019-03-25T02:44:08.491Z,7.67
2019-03-25T02:46:38.470Z,7.54
2019-03-25T02:49:08.514Z,7.50
2019-03-25T02:51:38.459Z,7.53
2019-03-25T02:54:08.510Z,7.53
2019-03-25T02:56:38.449Z,7.50
2019-03-25T02:59:08.458Z,7.50
2019-03-25T03:01:38.434Z,7.49
2019-03-25T03:04:08.439Z,7.50
2019-03-25T03:06:38.405Z,7.49
2019-03-25T03:09:08.982Z,7.38
2019-03-25T03:11:38.986Z,7.39
2019-03-25T03:14:08.944Z,7.32
2019-03-25T03:16:38.918Z,7.25
2019-03-25T03:19:08.918Z,7.18
2019-03-25T03:21:38.884Z,7.16
2019-03-25T03:24:08.866Z,7.06
2019-03-25T03:26:38.848Z,7.06
2019-03-25T03:29:08.848Z,6.98
2019-03-25T03:31:38.814Z,6.93
2019-03-25T03:34:08.757Z,6.88
2019-03-25T03:36:38.712Z,6.89
2019-03-25T03:39:08.800Z,6.84
2019-03-25T03:41:38.767Z,6.90
2019-03-25T03:44:08.742Z,7.08
2019-03-25T03:46:38.712Z,6.87
2019-03-25T03:49:08.718Z,6.82
2019-03-25T03:51:38.681Z,6.81
2019-03-25T03:54:08.660Z,6.78
2019-03-25T03:56:38.637Z,6.72
2019-03-25T03:59:08.643Z,6.76
2019-03-25T04:01:38.611Z,6.80
2019-03-25T04:04:08.585Z,6.76
2019-03-25T04:06:38.535Z,6.82
2019-03-25T04:09:08.561Z,6.79
2019-03-25T04:11:38.540Z,6.84
2019-03-25T04:14:08.482Z,6.79
2019-03-25T04:16:38.463Z,6.83
2019-03-25T04:19:08.560Z,6.83
2019-03-25T04:21:38.410Z,6.86
2019-03-25T04:24:08.377Z,6.95
2019-03-25T04:26:38.371Z,6.94
2019-03-25T04:29:08.374Z,6.92
2019-03-25T04:31:38.333Z,6.83
2019-03-25T04:34:08.286Z,6.80
2019-03-25T04:36:38.231Z,7.04
2019-03-25T04:39:08.714Z,6.87
2019-03-25T04:41:38.697Z,6.84
2019-03-25T04:44:08.716Z,6.80
2019-03-25T04:46:38.669Z,6.79
2019-03-25T04:49:08.719Z,6.76
2019-03-25T04:51:38.662Z,6.78
2019-03-25T04:54:08.630Z,6.77
2019-03-25T04:56:40.047Z,6.79
2019-03-25T04:59:08.625Z,6.81
2019-03-25T05:01:38.622Z,6.86
2019-03-25T05:04:08.577Z,7.10
2019-03-25T05:06:38.592Z,6.90
2019-03-25T05:09:08.604Z,6.85
2019-03-25T05:11:38.580Z,6.86
2019-03-25T05:14:08.705Z,6.94
2019-03-25T05:16:38.699Z,6.98
2019-03-25T05:19:08.726Z,6.98
2019-03-25T05:21:38.707Z,6.94
2019-03-25T05:24:08.732Z,6.97
2019-03-25T05:26:38.688Z,6.97
2019-03-25T05:29:08.683Z,7.02
2019-03-25T05:31:38.652Z,6.98
2019-03-25T05:34:08.669Z,7.07
2019-03-25T05:36:38.623Z,7.08
2019-03-25T05:39:09.705Z,7.12
2019-03-25T05:41:39.649Z,7.14
2019-03-25T05:44:09.778Z,7.17
2019-03-25T05:46:39.713Z,7.07
2019-03-25T05:49:09.698Z,7.16
2019-03-25T05:51:39.650Z,7.19
2019-03-25T05:54:09.663Z,7.17
2019-03-25T05:56:39.658Z,7.20
2019-03-25T05:59:09.615Z,7.24
2019-03-25T06:01:39.599Z,7.31
2019-03-25T06:04:09.612Z,7.28
2019-03-25T06:06:39.659Z,7.39
2019-03-25T06:09:09.595Z,7.35
2019-03-25T06:11:39.573Z,7.28
2019-03-25T06:14:09.550Z,7.32
2019-03-25T06:16:39.522Z,7.53
2019-03-25T06:19:09.520Z,7.65
2019-03-25T06:21:39.489Z,7.62
2019-03-25T06:24:09.521Z,7.64
2019-03-25T06:26:39.459Z,7.52
2019-03-25T06:29:09.566Z,7.65
2019-03-25T06:31:39.544Z,7.99
2019-03-25T06:34:09.648Z,8.27
2019-03-25T06:36:39.605Z,8.10
2019-03-25T06:39:09.618Z,8.12
2019-03-25T06:41:39.572Z,8.23
2019-03-25T06:44:09.665Z,8.41
2019-03-25T06:46:39.637Z,8.93
2019-03-25T06:49:09.664Z,9.32
2019-03-25T06:51:39.625Z,9.32
2019-03-25T06:54:09.641Z,9.05
2019-03-25T06:56:39.664Z,8.96
2019-03-25T06:59:09.821Z,8.77
2019-03-25T07:01:39.779Z,8.36
2019-03-25T07:04:09.898Z,8.24
2019-03-25T07:06:39.856Z,8.08
2019-03-25T07:09:10.113Z,8.09
2019-03-25T07:11:40.269Z,8.02
2019-03-25T07:14:10.365Z,8.00
2019-03-25T07:16:40.370Z,7.87
2019-03-25T07:19:10.320Z,7.82
2019-03-25T07:21:40.287Z,7.67
2019-03-25T07:24:10.379Z,7.91
2019-03-25T07:26:40.349Z,8.03
2019-03-25T07:29:10.338Z,8.12
2019-03-25T07:31:40.324Z,8.21
2019-03-25T07:34:10.368Z,8.41
2019-03-25T07:36:40.342Z,8.66
2019-03-25T07:39:10.405Z,8.63
2019-03-25T07:41:40.365Z,8.54
2019-03-25T07:44:10.343Z,8.40
2019-03-25T07:46:40.319Z,8.34
2019-03-25T07:49:10.404Z,8.42
2019-03-25T07:51:40.365Z,8.84
2019-03-25T07:54:10.434Z,9.03
2019-03-25T07:56:40.393Z,9.41
2019-03-25T07:59:10.393Z,9.58
2019-03-25T08:01:40.372Z,10.08
2019-03-25T08:04:10.625Z,10.33
2019-03-25T08:06:40.765Z,10.38
2019-03-25T08:09:13.662Z,10.42
2019-03-25T08:11:43.628Z,10.34
2019-03-25T08:14:13.634Z,9.87
2019-03-25T08:16:43.612Z,9.58
2019-03-25T08:19:13.592Z,9.16
2019-03-25T08:21:45.723Z,9.05
2019-03-25T08:24:13.533Z,9.25
2019-03-25T08:26:43.506Z,9.13
2019-03-25T08:29:13.475Z,9.09
2019-03-25T08:31:43.427Z,9.03
2019-03-25T08:34:13.435Z,9.56
2019-03-25T08:36:43.406Z,9.53
2019-03-25T08:39:13.413Z,9.38
2019-03-25T08:41:43.366Z,9.48
2019-03-25T08:44:13.334Z,10.25
2019-03-25T08:46:43.486Z,12.03
2019-03-25T08:49:13.497Z,12.76
2019-03-25T08:51:43.437Z,13.90
2019-03-25T08:54:13.489Z,14.10
2019-03-25T08:56:46.145Z,13.63
2019-03-25T08:59:16.106Z,12.59
2019-03-25T09:01:46.105Z,11.76
2019-03-25T09:04:16.273Z,11.22
2019-03-25T09:06:47.983Z,10.72
2019-03-25T09:09:16.189Z,10.49
2019-03-25T09:11:46.160Z,10.65
2019-03-25T09:14:17.970Z,11.92
2019-03-25T09:16:46.075Z,13.70
2019-03-25T09:19:16.062Z,16.02
2019-03-25T09:21:46.037Z,16.75
2019-03-25T09:24:16.037Z,18.04
2019-03-25T09:26:46.038Z,18.82
2019-03-25T09:29:16.072Z,19.66
2019-03-25T09:31:46.059Z,19.08
2019-03-25T09:34:16.165Z,17.47
2019-03-25T09:36:46.195Z,18.55
2019-03-25T09:39:16.183Z,18.67
2019-03-25T09:41:46.278Z,19.16
2019-03-25T09:44:16.256Z,19.11
2019-03-25T09:46:46.222Z,18.51
2019-03-25T09:49:16.219Z,16.71
2019-03-25T09:51:46.288Z,15.79
2019-03-25T09:54:16.328Z,14.42
2019-03-25T09:56:46.332Z,13.72
2019-03-25T09:59:16.286Z,12.54
2019-03-25T10:01:46.302Z,12.25
2019-03-25T10:04:16.293Z,11.78
2019-03-25T10:06:46.285Z,12.82
2019-03-25T10:09:16.290Z,15.46
2019-03-25T10:11:46.295Z,17.20
2019-03-25T10:14:16.261Z,19.24
2019-03-25T10:16:46.250Z,20.14
2019-03-25T10:19:16.204Z,20.46
2019-03-25T10:21:46.183Z,18.87
2019-03-25T10:24:16.186Z,17.96
2019-03-25T10:26:46.193Z,17.32
2019-03-25T10:29:16.187Z,18.21
2019-03-25T10:31:46.172Z,19.13
2019-03-25T10:34:16.124Z,20.05
2019-03-25T10:36:46.352Z,20.86
2019-03-25T10:39:16.324Z,21.00
2019-03-25T10:41:46.277Z,21.76
2019-03-25T10:44:16.245Z,20.42
2019-03-25T10:46:46.211Z,19.95
2019-03-25T10:49:16.515Z,18.92
2019-03-25T10:51:46.263Z,18.57
2019-03-25T10:54:16.265Z,17.42
2019-03-25T10:56:49.254Z,16.52
2019-03-25T10:59:16.173Z,16.01
2019-03-25T11:01:46.163Z,17.28
2019-03-25T11:04:16.193Z,16.31
2019-03-25T11:06:46.152Z,15.33
2019-03-25T11:09:16.156Z,14.11
2019-03-25T11:11:46.135Z,12.99
2019-03-25T11:14:16.096Z,11.86
2019-03-25T11:16:46.069Z,11.20
2019-03-25T11:19:16.023Z,11.51
2019-03-25T11:21:46.193Z,12.60
2019-03-25T11:24:16.452Z,13.94
2019-03-25T11:26:46.440Z,14.77
2019-03-25T11:29:16.433Z,15.66
2019-03-25T11:31:46.386Z,16.32
2019-03-25T11:34:16.388Z,16.65
2019-03-25T11:36:46.330Z,17.18
2019-03-25T11:39:16.333Z,16.37
2019-03-25T11:41:46.269Z,15.24
2019-03-25T11:44:16.246Z,14.76
2019-03-25T11:46:46.234Z,14.93
2019-03-25T11:49:16.261Z,14.60
2019-03-25T11:51:46.201Z,14.75
2019-03-25T11:54:16.185Z,14.64
2019-03-25T11:56:46.179Z,14.91
2019-03-25T11:59:18.919Z,14.38
2019-03-25T12:01:46.131Z,14.14
2019-03-25T12:04:16.097Z,13.98
2019-03-25T12:06:46.062Z,13.50
2019-03-25T12:09:16.036Z,13.30
2019-03-25T12:11:46.011Z,13.19
2019-03-25T12:14:15.973Z,12.77
2019-03-25T12:16:45.965Z,12.82
2019-03-25T12:19:15.938Z,12.55
2019-03-25T12:21:45.932Z,12.39
2019-03-25T12:24:15.890Z,12.50
2019-03-25T12:26:45.870Z,12.67
2019-03-25T12:29:15.824Z,12.52
2019-03-25T12:31:45.797Z,12.40
2019-03-25T12:34:15.896Z,12.19
2019-03-25T12:36:45.765Z,12.08
2019-03-25T12:39:15.749Z,11.97
2019-03-25T12:41:45.729Z,11.88
2019-03-25T12:44:15.670Z,11.75
2019-03-25T12:46:45.686Z,11.62
2019-03-25T12:49:15.655Z,11.51
2019-03-25T12:51:48.314Z,11.48
2019-03-25T12:54:15.671Z,11.26
2019-03-25T12:56:45.636Z,11.50
2019-03-25T12:59:15.614Z,11.51
2019-03-25T13:01:52.832Z,11.57
2019-03-25T13:04:15.632Z,11.58
2019-03-25T13:06:45.611Z,11.49
2019-03-25T13:09:15.604Z,11.28
2019-03-25T13:11:45.552Z,11.24
2019-03-25T13:14:15.570Z,11.34
2019-03-25T13:16:45.567Z,11.51
2019-03-25T13:19:15.538Z,11.30
2019-03-25T13:21:45.510Z,11.12
2019-03-25T13:24:15.504Z,11.06
2019-03-25T13:26:45.496Z,11.06
2019-03-25T13:29:15.512Z,11.16
2019-03-25T13:31:45.472Z,11.38
2019-03-25T13:34:15.421Z,11.70
2019-03-25T13:36:45.383Z,11.78
2019-03-25T13:39:15.363Z,11.83
2019-03-25T13:41:45.339Z,11.81
2019-03-25T13:44:15.323Z,11.86
2019-03-25T13:46:45.297Z,11.82
2019-03-25T13:49:15.281Z,11.97
2019-03-25T13:51:45.261Z,11.98
2019-03-25T13:54:15.250Z,11.85
2019-03-25T13:56:45.242Z,11.90
2019-03-25T13:59:15.268Z,11.93
2019-03-25T14:01:45.190Z,11.89
2019-03-25T14:04:15.185Z,11.88
2019-03-25T14:06:45.136Z,11.86
2019-03-25T14:09:15.098Z,11.98
2019-03-25T14:11:45.051Z,12.14
2019-03-25T14:14:15.019Z,12.23
2019-03-25T14:16:45.015Z,12.13
2019-03-25T14:19:15.009Z,12.10
2019-03-25T14:21:44.979Z,11.96
2019-03-25T14:24:14.961Z,11.74
2019-03-25T14:26:44.940Z,11.67
2019-03-25T14:29:14.881Z,11.58
2019-03-25T14:31:44.851Z,11.60
2019-03-25T14:34:14.802Z,11.59
2019-03-25T14:36:44.784Z,11.49
2019-03-25T14:39:14.756Z,11.48
2019-03-25T14:41:44.743Z,11.48
2019-03-25T14:44:14.730Z,11.50
2019-03-25T14:46:44.698Z,11.51
2019-03-25T14:49:14.731Z,11.74
2019-03-25T14:51:44.653Z,11.67
2019-03-25T14:54:14.632Z,11.72
2019-03-25T14:56:44.619Z,11.64
2019-03-25T14:59:14.599Z,11.53
2019-03-25T15:01:44.549Z,11.58
2019-03-25T15:04:14.543Z,11.75
2019-03-25T15:06:44.508Z,11.88
2019-03-25T15:09:14.486Z,12.07
2019-03-25T15:11:44.496Z,11.87
2019-03-25T15:14:14.471Z,11.89
2019-03-25T15:16:44.420Z,12.08
2019-03-25T15:19:14.405Z,11.95
2019-03-25T15:21:44.395Z,11.75
2019-03-25T15:24:14.350Z,11.77
2019-03-25T15:26:44.352Z,11.62
2019-03-25T15:29:14.308Z,11.56
2019-03-25T15:31:44.304Z,11.55
2019-03-25T15:34:14.278Z,11.65
2019-03-25T15:36:44.235Z,11.33
2019-03-25T15:39:14.235Z,11.07
2019-03-25T15:41:44.215Z,11.04
2019-03-25T15:44:14.352Z,10.94
2019-03-25T15:46:55.137Z,10.93
2019-03-25T15:49:14.282Z,10.90
2019-03-25T15:51:44.265Z,10.77
2019-03-25T15:54:14.251Z,10.83
2019-03-25T15:56:44.231Z,10.94
2019-03-25T15:59:14.207Z,10.71
2019-03-25T16:01:44.158Z,10.73
2019-03-25T16:04:14.149Z,10.67
2019-03-25T16:06:44.134Z,10.78
2019-03-25T16:09:14.140Z,10.74
2019-03-25T16:11:44.135Z,10.72
2019-03-25T16:14:14.086Z,10.76
2019-03-25T16:16:44.041Z,10.83
2019-03-25T16:19:14.060Z,10.80
2019-03-25T16:21:43.956Z,10.91
2019-03-25T16:24:13.931Z,10.77
2019-03-25T16:26:43.909Z,10.96
2019-03-25T16:29:13.860Z,10.76
2019-03-25T16:31:43.870Z,10.72
2019-03-25T16:34:13.873Z,10.79
2019-03-25T16:36:43.822Z,10.86
2019-03-25T16:39:13.793Z,10.79
2019-03-25T16:41:43.748Z,10.79
2019-03-25T16:44:13.723Z,10.76
2019-03-25T16:46:43.698Z,10.77
2019-03-25T16:49:13.656Z,10.77
2019-03-25T16:51:43.610Z,10.66
2019-03-25T16:54:13.600Z,10.55
2019-03-25T16:56:43.616Z,10.47
2019-03-25T16:59:13.581Z,10.51
2019-03-25T17:01:43.531Z,10.58
2019-03-25T17:04:13.501Z,10.47
2019-03-25T17:06:43.476Z,10.47
2019-03-25T17:09:13.448Z,10.42
2019-03-25T17:11:43.410Z,10.37
2019-03-25T17:14:13.406Z,10.28
2019-03-25T17:16:43.366Z,10.21
2019-03-25T17:19:13.335Z,10.22
2019-03-25T17:21:43.305Z,10.22
2019-03-25T17:24:14.311Z,10.17
2019-03-25T17:26:43.281Z,10.12
2019-03-25T17:29:13.232Z,10.05
2019-03-25T17:31:43.174Z,10.03
2019-03-25T17:34:13.191Z,10.18
2019-03-25T17:36:43.122Z,10.02
2019-03-25T17:39:13.097Z,9.91
2019-03-25T17:41:43.090Z,9.95
2019-03-25T17:44:13.064Z,9.68
2019-03-25T17:46:43.020Z,9.55
2019-03-25T17:49:13.014Z,9.45
2019-03-25T17:51:42.976Z,9.38
2019-03-25T17:54:12.972Z,9.36
2019-03-25T17:56:42.936Z,9.34
2019-03-25T17:59:12.910Z,9.34
2019-03-25T18:01:42.898Z,9.31
2019-03-25T18:04:12.844Z,9.18
2019-03-25T18:06:42.826Z,9.20
2019-03-25T18:09:12.792Z,9.04
2019-03-25T18:11:42.763Z,9.02
2019-03-25T18:14:12.734Z,8.97
2019-03-25T18:16:42.724Z,8.94
2019-03-25T18:19:12.717Z,8.92
2019-03-25T18:21:42.655Z,8.93
2019-03-25T18:24:12.596Z,8.88
2019-03-25T18:26:42.535Z,9.00
2019-03-25T18:29:12.509Z,8.88
2019-03-25T18:31:43.664Z,8.78
2019-03-25T18:34:12.417Z,8.68
2019-03-25T18:36:42.409Z,8.62
2019-03-25T18:39:12.376Z,8.58
2019-03-25T18:41:42.339Z,8.60
2019-03-25T18:44:12.315Z,8.55
2019-03-25T18:46:42.296Z,8.57
2019-03-25T18:49:12.258Z,8.55
2019-03-25T18:51:42.243Z,8.50
2019-03-25T18:54:12.168Z,8.49
2019-03-25T18:56:42.127Z,8.57
2019-03-25T18:59:12.091Z,8.43
2019-03-25T19:01:42.062Z,8.32
2019-03-25T19:04:12.034Z,8.27
2019-03-25T19:06:42.175Z,8.26
2019-03-25T19:09:12.143Z,8.22
2019-03-25T19:11:42.091Z,8.15
2019-03-25T19:14:12.066Z,8.16
2019-03-25T19:16:42.012Z,8.06
2019-03-25T19:19:11.984Z,8.10
2019-03-25T19:21:41.971Z,8.06
2019-03-25T19:24:11.954Z,8.05
2019-03-25T19:26:41.934Z,7.99
2019-03-25T19:29:11.991Z,7.92
2019-03-25T19:31:41.886Z,7.95
2019-03-25T19:34:11.846Z,7.88
2019-03-25T19:36:41.839Z,7.85
2019-03-25T19:39:11.813Z,7.82
2019-03-25T19:41:41.817Z,7.78
2019-03-25T19:44:11.774Z,7.81
2019-03-25T19:46:41.690Z,7.81
2019-03-25T19:49:11.708Z,7.77
2019-03-25T19:51:41.621Z,8.02
2019-03-25T19:54:11.563Z,7.87
2019-03-25T19:56:41.512Z,7.84
2019-03-25T19:59:11.724Z,7.83
2019-03-25T20:01:41.691Z,7.80
2019-03-25T20:04:11.662Z,7.71
2019-03-25T20:06:41.631Z,7.64
2019-03-25T20:09:11.651Z,7.65
2019-03-25T20:11:41.556Z,7.67
2019-03-25T20:14:11.565Z,7.62
2019-03-25T20:16:41.472Z,7.61
2019-03-25T20:19:11.437Z,7.66
2019-03-25T20:21:41.376Z,7.66
2019-03-25T20:24:11.399Z,7.68
2019-03-25T20:26:41.312Z,7.71
2019-03-25T20:29:11.332Z,7.78
2019-03-25T20:31:41.209Z,7.88
2019-03-25T20:34:11.680Z,7.90
2019-03-25T20:36:41.161Z,7.86
2019-03-25T20:39:11.137Z,7.87
2019-03-25T20:41:41.118Z,7.90
2019-03-25T20:44:11.099Z,7.97
2019-03-25T20:46:41.109Z,7.99
2019-03-25T20:49:11.073Z,8.01
2019-03-25T20:51:41.037Z,8.24
2019-03-25T20:54:10.986Z,8.13
2019-03-25T20:56:41.020Z,8.05
2019-03-25T20:59:10.979Z,8.05
2019-03-25T21:01:40.924Z,8.05
2019-03-25T21:04:10.908Z,8.07
2019-03-25T21:06:40.873Z,8.09
2019-03-25T21:09:10.855Z,8.08
2019-03-25T21:11:40.769Z,8.11
2019-03-25T21:14:12.592Z,8.16
2019-03-25T21:16:42.543Z,8.17
2019-03-25T21:19:12.543Z,8.20
2019-03-25T21:21:42.470Z,8.24
2019-03-25T21:24:12.416Z,8.29
2019-03-25T21:26:42.461Z,8.33
2019-03-25T21:29:12.368Z,8.34
2019-03-25T21:31:42.316Z,8.33
2019-03-25T21:34:12.532Z,8.36
2019-03-25T21:36:42.574Z,8.39
2019-03-25T21:39:12.405Z,8.34
2019-03-25T21:41:42.407Z,8.66
2019-03-25T21:44:12.356Z,8.54
2019-03-25T21:46:42.418Z,8.55
2019-03-25T21:49:12.309Z,8.53
2019-03-25T21:51:42.265Z,8.56
2019-03-25T21:54:12.317Z,8.56
2019-03-25T21:56:42.210Z,8.57
2019-03-25T21:59:12.188Z,8.57
2019-03-25T22:01:42.157Z,8.53
2019-03-25T22:04:12.119Z,8.53
2019-03-25T22:06:42.080Z,8.54
2019-03-25T22:09:12.081Z,8.54
2019-03-25T22:11:42.035Z,8.51
2019-03-25T22:14:12.033Z,8.50
2019-03-25T22:16:41.937Z,8.47
2019-03-25T22:19:11.882Z,8.46
2019-03-25T22:21:41.863Z,8.51
2019-03-25T22:24:11.874Z,8.50
2019-03-25T22:26:41.780Z,8.53
2019-03-25T22:29:11.733Z,8.57
2019-03-25T22:31:41.717Z,8.57
2019-03-25T22:34:11.678Z,8.58
2019-03-25T22:36:41.673Z,8.62
2019-03-25T22:39:11.637Z,8.70
2019-03-25T22:41:41.692Z,8.65
2019-03-25T22:44:11.639Z,8.64
2019-03-25T22:46:41.599Z,8.60
2019-03-25T22:49:11.579Z,8.63
2019-03-25T22:51:41.536Z,8.62
2019-03-25T22:54:11.537Z,8.61
2019-03-25T22:56:41.553Z,8.58
2019-03-25T22:59:11.534Z,8.55
2019-03-25T23:01:41.486Z,8.57
2019-03-25T23:04:11.469Z,8.58
2019-03-25T23:06:41.444Z,8.61
2019-03-25T23:09:11.435Z,8.59
2019-03-25T23:11:41.413Z,8.61
2019-03-25T23:14:11.407Z,8.60
2019-03-25T23:16:41.387Z,8.64
2019-03-25T23:19:11.349Z,8.61
2019-03-25T23:21:41.343Z,8.58
2019-03-25T23:24:11.311Z,8.59
2019-03-25T23:26:41.275Z,8.54
2019-03-25T23:29:11.234Z,8.47
2019-03-25T23:31:41.268Z,8.47
2019-03-25T23:34:11.240Z,8.43
2019-03-25T23:36:41.216Z,8.35
2019-03-25T23:39:11.177Z,8.34
2019-03-25T23:41:41.192Z,8.35
2019-03-25T23:44:11.208Z,8.34
2019-03-25T23:46:41.156Z,8.33
2019-03-25T23:49:11.122Z,8.31
2019-03-25T23:51:41.067Z,8.29
2019-03-25T23:54:12.266Z,8.65
2019-03-25T23:56:42.614Z,8.45
2019-03-25T23:59:12.683Z,8.43
